PWSweather.com
Personal Weather Stations
Station Observations
KKYCRABO2
Cedar Creek Lake 840 Ky. Hwy. 39 N, Crab Orchard, KY 40419

Cedar Creek Lake 840 Ky. Hwy. 39 NCrab Orchard, KY 40419

Lat: 37.4736234544238, Lon: -84.5120286941528

Elevation: 952

Station Type: TYCON Power TP1080WC Pro

http://kbweather.net/

High Low Average
Temperature 71.8°F22.1°F 52.7°F11.5°F 61.0°F16.1°F
Dew Point 59.0°F15.0°F 51.8°F11.0°F 54.4°F12.4°F
Winds 5.4 mph S8.7 mph S Calm Calm 2.0 mph 3.2 mph
Wind Gusts 8.5 mph13.7 mph 1.6 mph2.6 mph 4.1 mph6.6 mph
Humidity 96% 55% 79%
Pressure 29.91 in1012.90 in 29.77 in1008.10 in -
Precipitation 0.00 in0.00 in - -
Hour Temp Dew Point Humidity Winds Wind Gusts Pressure Precip Precip Rate Daily Precip Total
12:00 AM 55.9°F13.3°C 53.6°F12.0°C 91% 2.2 mph SSW3.5 kmh SSW 2.9 mph4.7 kmh 29.85 in1010.8 mb 0.00 in0.0 mm 0.00 in0.0 mm 0.00 in0.0 mm
12:05 AM 55.9°F13.3°C 53.6°F12.0°C 90% 2.2 mph SSW3.5 kmh SSW 2.9 mph4.7 kmh 29.85 in1010.8 mb 0.00 in0.0 mm 0.00 in0.0 mm 0.00 in0.0 mm
12:10 AM 55.8°F13.2°C 53.6°F12.0°C 90% Calm Calm 2.9 mph4.7 kmh 29.82 in1009.8 mb 0.00 in0.0 mm 0.00 in0.0 mm 0.00 in0.0 mm
12:15 AM 55.8°F13.2°C 53.6°F12.0°C 91% 2.0 mph SSW3.2 kmh SSW 3.1 mph5.0 kmh 29.82 in1009.8 mb 0.00 in0.0 mm 0.00 in0.0 mm 0.00 in0.0 mm
12:20 AM 55.6°F13.1°C 53.6°F12.0°C 91% 2.5 mph SSW4.0 kmh SSW 3.4 mph5.5 kmh 29.82 in1009.8 mb 0.00 in0.0 mm 0.00 in0.0 mm 0.00 in0.0 mm
12:25 AM 55.6°F13.1°C 53.6°F12.0°C 91% 1.1 mph SSW1.8 kmh SSW 3.8 mph6.1 kmh 29.85 in1010.8 mb 0.00 in0.0 mm 0.00 in0.0 mm 0.00 in0.0 mm
12:30 AM 55.6°F13.1°C 53.6°F12.0°C 91% 1.6 mph SSW2.6 kmh SSW 3.8 mph6.1 kmh 29.85 in1010.8 mb 0.00 in0.0 mm 0.00 in0.0 mm 0.00 in0.0 mm
12:35 AM 55.4°F13.0°C 53.6°F12.0°C 91% 2.5 mph S4.0 kmh S 3.6 mph5.8 kmh 29.85 in1010.8 mb 0.00 in0.0 mm 0.00 in0.0 mm 0.00 in0.0 mm
12:40 AM 55.4°F13.0°C 53.6°F12.0°C 92% 2.5 mph S4.0 kmh S 3.6 mph5.8 kmh 29.82 in1009.8 mb 0.00 in0.0 mm 0.00 in0.0 mm 0.00 in0.0 mm
12:45 AM 55.4°F13.0°C 53.6°F12.0°C 92% 0.9 mph SSW1.4 kmh SSW 3.4 mph5.5 kmh 29.82 in1009.8 mb 0.00 in0.0 mm 0.00 in0.0 mm 0.00 in0.0 mm
12:50 AM 55.4°F13.0°C 53.6°F12.0°C 92% 1.3 mph SW2.1 kmh SW 3.4 mph5.5 kmh 29.82 in1009.8 mb 0.00 in0.0 mm 0.00 in0.0 mm 0.00 in0.0 mm
12:55 AM 55.4°F13.0°C 53.6°F12.0°C 92% Calm Calm 2.2 mph3.5 kmh 29.82 in1009.8 mb 0.00 in0.0 mm 0.00 in0.0 mm 0.00 in0.0 mm
01:00 AM 55.4°F13.0°C 53.6°F12.0°C 92% 2.7 mph S4.3 kmh S 3.6 mph5.8 kmh 29.82 in1009.8 mb 0.00 in0.0 mm 0.00 in0.0 mm 0.00 in0.0 mm
01:05 AM 55.4°F13.0°C 53.6°F12.0°C 92% 2.7 mph S4.3 kmh S 3.6 mph5.8 kmh 29.82 in1009.8 mb 0.00 in0.0 mm 0.00 in0.0 mm 0.00 in0.0 mm
01:10 AM 55.4°F13.0°C 53.6°F12.0°C 92% 2.2 mph SSW3.5 kmh SSW 3.6 mph5.8 kmh 29.82 in1009.8 mb 0.00 in0.0 mm 0.00 in0.0 mm 0.00 in0.0 mm
01:15 AM 55.4°F13.0°C 53.6°F12.0°C 92% 1.1 mph SSW1.8 kmh SSW 3.1 mph5.0 kmh 29.82 in1009.8 mb 0.00 in0.0 mm 0.00 in0.0 mm 0.00 in0.0 mm
01:20 AM 55.4°F13.0°C 53.6°F12.0°C 92% 2.5 mph SSW4.0 kmh SSW 3.1 mph5.0 kmh 29.82 in1009.8 mb 0.00 in0.0 mm 0.00 in0.0 mm 0.00 in0.0 mm
01:25 AM 55.4°F13.0°C 53.6°F12.0°C 92% 1.3 mph SSW2.1 kmh SSW 3.6 mph5.8 kmh 29.82 in1009.8 mb 0.00 in0.0 mm 0.00 in0.0 mm 0.00 in0.0 mm
01:30 AM 55.4°F13.0°C 53.6°F12.0°C 92% Calm Calm 3.6 mph5.8 kmh 29.82 in1009.8 mb 0.00 in0.0 mm 0.00 in0.0 mm 0.00 in0.0 mm
01:35 AM 55.2°F12.9°C 53.6°F12.0°C 92% 1.1 mph SSW1.8 kmh SSW 3.6 mph5.8 kmh 29.82 in1009.8 mb 0.00 in0.0 mm 0.00 in0.0 mm 0.00 in0.0 mm
01:40 AM 55.2°F12.9°C 53.6°F12.0°C 92% 0.9 mph SSW1.4 kmh SSW 2.9 mph4.7 kmh 29.85 in1010.8 mb 0.00 in0.0 mm 0.00 in0.0 mm 0.00 in0.0 mm
01:45 AM 55.2°F12.9°C 53.6°F12.0°C 92% 0.9 mph SSW1.4 kmh SSW 2.9 mph4.7 kmh 29.85 in1010.8 mb 0.00 in0.0 mm 0.00 in0.0 mm 0.00 in0.0 mm
01:50 AM 55.0°F12.8°C 53.6°F12.0°C 92% 2.2 mph S3.5 kmh S 5.6 mph9.0 kmh 29.85 in1010.8 mb 0.00 in0.0 mm 0.00 in0.0 mm 0.00 in0.0 mm
01:55 AM 54.9°F12.7°C 53.6°F12.0°C 92% 0.9 mph S1.4 kmh S 5.6 mph9.0 kmh 29.85 in1010.8 mb 0.00 in0.0 mm 0.00 in0.0 mm 0.00 in0.0 mm
02:00 AM 54.9°F12.7°C 53.6°F12.0°C 92% 2.5 mph S4.0 kmh S 2.9 mph4.7 kmh 29.85 in1010.8 mb 0.00 in0.0 mm 0.00 in0.0 mm 0.00 in0.0 mm
02:05 AM 54.9°F12.7°C 53.6°F12.0°C 93% 2.2 mph SSW3.5 kmh SSW 4.0 mph6.4 kmh 29.85 in1010.8 mb 0.00 in0.0 mm 0.00 in0.0 mm 0.00 in0.0 mm
02:10 AM 54.9°F12.7°C 53.6°F12.0°C 93% 2.7 mph SSW4.3 kmh SSW 4.0 mph6.4 kmh 29.85 in1010.8 mb 0.00 in0.0 mm 0.00 in0.0 mm 0.00 in0.0 mm
02:15 AM 54.7°F12.6°C 53.6°F12.0°C 93% 3.1 mph S5.0 kmh S 4.0 mph6.4 kmh 29.85 in1010.8 mb 0.00 in0.0 mm 0.00 in0.0 mm 0.00 in0.0 mm
02:20 AM 54.7°F12.6°C 53.6°F12.0°C 93% 2.5 mph S4.0 kmh S 3.8 mph6.1 kmh 29.85 in1010.8 mb 0.00 in0.0 mm 0.00 in0.0 mm 0.00 in0.0 mm
02:25 AM 54.7°F12.6°C 53.6°F12.0°C 93% 2.9 mph SSW4.7 kmh SSW 3.8 mph6.1 kmh 29.82 in1009.8 mb 0.00 in0.0 mm 0.00 in0.0 mm 0.00 in0.0 mm
02:30 AM 54.7°F12.6°C 53.6°F12.0°C 93% 2.5 mph SSW4.0 kmh SSW 4.0 mph6.4 kmh 29.82 in1009.8 mb 0.00 in0.0 mm 0.00 in0.0 mm 0.00 in0.0 mm
02:35 AM 54.7°F12.6°C 53.6°F12.0°C 93% 2.7 mph SSW4.3 kmh SSW 4.0 mph6.4 kmh 29.82 in1009.8 mb 0.00 in0.0 mm 0.00 in0.0 mm 0.00 in0.0 mm
02:40 AM 54.7°F12.6°C 53.6°F12.0°C 93% 2.2 mph S3.5 kmh S 4.0 mph6.4 kmh 29.82 in1009.8 mb 0.00 in0.0 mm 0.00 in0.0 mm 0.00 in0.0 mm
02:45 AM 54.7°F12.6°C 53.6°F12.0°C 93% 2.9 mph S4.7 kmh S 4.7 mph7.6 kmh 29.82 in1009.8 mb 0.00 in0.0 mm 0.00 in0.0 mm 0.00 in0.0 mm
02:50 AM 54.7°F12.6°C 53.6°F12.0°C 93% 2.5 mph S4.0 kmh S 4.7 mph7.6 kmh 29.82 in1009.8 mb 0.00 in0.0 mm 0.00 in0.0 mm 0.00 in0.0 mm
02:55 AM 54.7°F12.6°C 53.6°F12.0°C 93% 1.1 mph S1.8 kmh S 4.3 mph6.9 kmh 29.82 in1009.8 mb 0.00 in0.0 mm 0.00 in0.0 mm 0.00 in0.0 mm
03:00 AM 54.7°F12.6°C 53.6°F12.0°C 93% 2.5 mph SSW4.0 kmh SSW 3.8 mph6.1 kmh 29.82 in1009.8 mb 0.00 in0.0 mm 0.00 in0.0 mm 0.00 in0.0 mm
03:05 AM 54.7°F12.6°C 53.6°F12.0°C 94% 3.1 mph SSW5.0 kmh SSW 4.9 mph7.9 kmh 29.82 in1009.8 mb 0.00 in0.0 mm 0.00 in0.0 mm 0.00 in0.0 mm
03:10 AM 54.7°F12.6°C 53.6°F12.0°C 94% 1.6 mph SSW2.6 kmh SSW 4.9 mph7.9 kmh 29.82 in1009.8 mb 0.00 in0.0 mm 0.00 in0.0 mm 0.00 in0.0 mm
03:15 AM 54.7°F12.6°C 53.6°F12.0°C 93% 2.5 mph SSW4.0 kmh SSW 4.9 mph7.9 kmh 29.82 in1009.8 mb 0.00 in0.0 mm 0.00 in0.0 mm 0.00 in0.0 mm
03:20 AM 54.7°F12.6°C 53.6°F12.0°C 93% 2.2 mph S3.5 kmh S 4.0 mph6.4 kmh 29.82 in1009.8 mb 0.00 in0.0 mm 0.00 in0.0 mm 0.00 in0.0 mm
03:25 AM 54.5°F12.5°C 53.6°F12.0°C 93% 3.1 mph S5.0 kmh S 4.0 mph6.4 kmh 29.82 in1009.8 mb 0.00 in0.0 mm 0.00 in0.0 mm 0.00 in0.0 mm
03:30 AM 54.7°F12.6°C 53.6°F12.0°C 93% 2.5 mph S4.0 kmh S 4.3 mph6.9 kmh 29.82 in1009.8 mb 0.00 in0.0 mm 0.00 in0.0 mm 0.00 in0.0 mm
03:35 AM 54.7°F12.6°C 53.6°F12.0°C 93% 2.7 mph SSW4.3 kmh SSW 4.3 mph6.9 kmh 29.82 in1009.8 mb 0.00 in0.0 mm 0.00 in0.0 mm 0.00 in0.0 mm
03:40 AM 54.7°F12.6°C 53.6°F12.0°C 93% 3.4 mph SSW5.5 kmh SSW 3.8 mph6.1 kmh 29.82 in1009.8 mb 0.00 in0.0 mm 0.00 in0.0 mm 0.00 in0.0 mm
03:45 AM 54.7°F12.6°C 53.6°F12.0°C 93% 2.5 mph SSW4.0 kmh SSW 4.9 mph7.9 kmh 29.82 in1009.8 mb 0.00 in0.0 mm 0.00 in0.0 mm 0.00 in0.0 mm
03:50 AM 54.7°F12.6°C 53.6°F12.0°C 93% 1.6 mph SSW2.6 kmh SSW 4.9 mph7.9 kmh 29.82 in1009.8 mb 0.00 in0.0 mm 0.00 in0.0 mm 0.00 in0.0 mm
03:55 AM 54.5°F12.5°C 53.6°F12.0°C 93% 2.2 mph SW3.5 kmh SW 3.6 mph5.8 kmh 29.79 in1008.8 mb 0.00 in0.0 mm 0.00 in0.0 mm 0.00 in0.0 mm
04:00 AM 54.5°F12.5°C 53.6°F12.0°C 93% Calm Calm 2.7 mph4.3 kmh 29.79 in1008.8 mb 0.00 in0.0 mm 0.00 in0.0 mm 0.00 in0.0 mm
04:05 AM 54.3°F12.4°C 53.6°F12.0°C 93% 2.0 mph SW3.2 kmh SW 2.7 mph4.3 kmh 29.79 in1008.8 mb 0.00 in0.0 mm 0.00 in0.0 mm 0.00 in0.0 mm
04:10 AM 54.3°F12.4°C 53.6°F12.0°C 93% Calm Calm 2.7 mph4.3 kmh 29.82 in1009.8 mb 0.00 in0.0 mm 0.00 in0.0 mm 0.00 in0.0 mm
04:15 AM 54.1°F12.3°C 53.6°F12.0°C 93% Calm Calm 2.9 mph4.7 kmh 29.82 in1009.8 mb 0.00 in0.0 mm 0.00 in0.0 mm 0.00 in0.0 mm
04:20 AM 54.0°F12.2°C 51.8°F11.0°C 93% Calm Calm 2.9 mph4.7 kmh 29.82 in1009.8 mb 0.00 in0.0 mm 0.00 in0.0 mm 0.00 in0.0 mm
04:25 AM 53.8°F12.1°C 51.8°F11.0°C 92% 1.1 mph SSW1.8 kmh SSW 2.7 mph4.3 kmh 29.82 in1009.8 mb 0.00 in0.0 mm 0.00 in0.0 mm 0.00 in0.0 mm
04:30 AM 53.6°F12.0°C 51.8°F11.0°C 93% 2.2 mph S3.5 kmh S 3.1 mph5.0 kmh 29.82 in1009.8 mb 0.00 in0.0 mm 0.00 in0.0 mm 0.00 in0.0 mm
04:35 AM 53.6°F12.0°C 51.8°F11.0°C 93% 1.3 mph S2.1 kmh S 3.1 mph5.0 kmh 29.82 in1009.8 mb 0.00 in0.0 mm 0.00 in0.0 mm 0.00 in0.0 mm
04:40 AM 53.6°F12.0°C 51.8°F11.0°C 93% 1.6 mph S2.6 kmh S 3.1 mph5.0 kmh 29.82 in1009.8 mb 0.00 in0.0 mm 0.00 in0.0 mm 0.00 in0.0 mm
04:45 AM 53.6°F12.0°C 51.8°F11.0°C 94% Calm Calm 3.1 mph5.0 kmh 29.82 in1009.8 mb 0.00 in0.0 mm 0.00 in0.0 mm 0.00 in0.0 mm
04:50 AM 53.6°F12.0°C 51.8°F11.0°C 94% 1.6 mph S2.6 kmh S 2.7 mph4.3 kmh 29.82 in1009.8 mb 0.00 in0.0 mm 0.00 in0.0 mm 0.00 in0.0 mm
04:55 AM 53.6°F12.0°C 51.8°F11.0°C 94% 2.0 mph S3.2 kmh S 2.7 mph4.3 kmh 29.82 in1009.8 mb 0.00 in0.0 mm 0.00 in0.0 mm 0.00 in0.0 mm
05:00 AM 53.4°F11.9°C 51.8°F11.0°C 94% 2.2 mph S3.5 kmh S 3.4 mph5.5 kmh 29.82 in1009.8 mb 0.00 in0.0 mm 0.00 in0.0 mm 0.00 in0.0 mm
05:05 AM 53.6°F12.0°C 51.8°F11.0°C 94% 0.9 mph S1.4 kmh S 3.4 mph5.5 kmh 29.82 in1009.8 mb 0.00 in0.0 mm 0.00 in0.0 mm 0.00 in0.0 mm
05:10 AM 53.4°F11.9°C 51.8°F11.0°C 94% 1.1 mph SSW1.8 kmh SSW 2.5 mph4.0 kmh 29.85 in1010.8 mb 0.00 in0.0 mm 0.00 in0.0 mm 0.00 in0.0 mm
05:15 AM 53.6°F12.0°C 51.8°F11.0°C 94% Calm Calm 2.7 mph4.3 kmh 29.85 in1010.8 mb 0.00 in0.0 mm 0.00 in0.0 mm 0.00 in0.0 mm
05:20 AM 53.4°F11.9°C 51.8°F11.0°C 94% 0.9 mph S1.4 kmh S 2.7 mph4.3 kmh 29.85 in1010.8 mb 0.00 in0.0 mm 0.00 in0.0 mm 0.00 in0.0 mm
05:25 AM 53.2°F11.8°C 51.8°F11.0°C 94% 1.3 mph S2.1 kmh S 2.7 mph4.3 kmh 29.85 in1010.8 mb 0.00 in0.0 mm 0.00 in0.0 mm 0.00 in0.0 mm
05:30 AM 53.1°F11.7°C 51.8°F11.0°C 94% 2.7 mph S4.3 kmh S 3.1 mph5.0 kmh 29.85 in1010.8 mb 0.00 in0.0 mm 0.00 in0.0 mm 0.00 in0.0 mm
05:35 AM 52.9°F11.6°C 51.8°F11.0°C 94% 1.3 mph S2.1 kmh S 3.4 mph5.5 kmh 29.85 in1010.8 mb 0.00 in0.0 mm 0.00 in0.0 mm 0.00 in0.0 mm
05:40 AM 52.9°F11.6°C 51.8°F11.0°C 94% 2.7 mph S4.3 kmh S 3.8 mph6.1 kmh 29.85 in1010.8 mb 0.00 in0.0 mm 0.00 in0.0 mm 0.00 in0.0 mm
05:45 AM 52.7°F11.5°C 51.8°F11.0°C 94% 2.7 mph S4.3 kmh S 3.8 mph6.1 kmh 29.85 in1010.8 mb 0.00 in0.0 mm 0.00 in0.0 mm 0.00 in0.0 mm
05:50 AM 52.7°F11.5°C 51.8°F11.0°C 94% 2.9 mph SSE4.7 kmh SSE 3.6 mph5.8 kmh 29.85 in1010.8 mb 0.00 in0.0 mm 0.00 in0.0 mm 0.00 in0.0 mm
05:55 AM 52.7°F11.5°C 51.8°F11.0°C 94% 2.0 mph SSE3.2 kmh SSE 3.8 mph6.1 kmh 29.85 in1010.8 mb 0.00 in0.0 mm 0.00 in0.0 mm 0.00 in0.0 mm
06:00 AM 52.9°F11.6°C 51.8°F11.0°C 95% 2.0 mph S3.2 kmh S 4.3 mph6.9 kmh 29.85 in1010.8 mb 0.00 in0.0 mm 0.00 in0.0 mm 0.00 in0.0 mm
06:05 AM 52.9°F11.6°C 51.8°F11.0°C 95% 1.3 mph S2.1 kmh S 4.3 mph6.9 kmh 29.85 in1010.8 mb 0.00 in0.0 mm 0.00 in0.0 mm 0.00 in0.0 mm
06:10 AM 52.9°F11.6°C 51.8°F11.0°C 95% 2.5 mph SSE4.0 kmh SSE 3.4 mph5.5 kmh 29.85 in1010.8 mb 0.00 in0.0 mm 0.00 in0.0 mm 0.00 in0.0 mm
06:15 AM 53.1°F11.7°C 51.8°F11.0°C 95% 1.1 mph S1.8 kmh S 3.4 mph5.5 kmh 29.85 in1010.8 mb 0.00 in0.0 mm 0.00 in0.0 mm 0.00 in0.0 mm
06:20 AM 53.1°F11.7°C 51.8°F11.0°C 95% Calm Calm 2.7 mph4.3 kmh 29.85 in1010.8 mb 0.00 in0.0 mm 0.00 in0.0 mm 0.00 in0.0 mm
06:25 AM 53.1°F11.7°C 51.8°F11.0°C 96% Calm Calm 2.7 mph4.3 kmh 29.88 in1011.9 mb 0.00 in0.0 mm 0.00 in0.0 mm 0.00 in0.0 mm
06:30 AM 53.2°F11.8°C 51.8°F11.0°C 96% Calm Calm 2.7 mph4.3 kmh 29.88 in1011.9 mb 0.00 in0.0 mm 0.00 in0.0 mm 0.00 in0.0 mm
06:35 AM 53.4°F11.9°C 53.6°F12.0°C 96% Calm Calm 2.7 mph4.3 kmh 29.88 in1011.9 mb 0.00 in0.0 mm 0.00 in0.0 mm 0.00 in0.0 mm
06:40 AM 53.4°F11.9°C 53.6°F12.0°C 96% 0.9 mph SSW1.4 kmh SSW 2.2 mph3.5 kmh 29.88 in1011.9 mb 0.00 in0.0 mm 0.00 in0.0 mm 0.00 in0.0 mm
06:45 AM 53.4°F11.9°C 53.6°F12.0°C 96% Calm Calm 2.2 mph3.5 kmh 29.88 in1011.9 mb 0.00 in0.0 mm 0.00 in0.0 mm 0.00 in0.0 mm
06:50 AM 53.6°F12.0°C 53.6°F12.0°C 96% Calm Calm 1.6 mph2.6 kmh 29.88 in1011.9 mb 0.00 in0.0 mm 0.00 in0.0 mm 0.00 in0.0 mm
06:55 AM 53.8°F12.1°C 53.6°F12.0°C 96% 1.1 mph SSW1.8 kmh SSW 2.2 mph3.5 kmh 29.88 in1011.9 mb 0.00 in0.0 mm 0.00 in0.0 mm 0.00 in0.0 mm
07:00 AM 53.8°F12.1°C 53.6°F12.0°C 96% 2.0 mph S3.2 kmh S 2.9 mph4.7 kmh 29.88 in1011.9 mb 0.00 in0.0 mm 0.00 in0.0 mm 0.00 in0.0 mm
07:05 AM 54.0°F12.2°C 53.6°F12.0°C 96% 1.3 mph S2.1 kmh S 3.1 mph5.0 kmh 29.88 in1011.9 mb 0.00 in0.0 mm 0.00 in0.0 mm 0.00 in0.0 mm
07:10 AM 54.0°F12.2°C 53.6°F12.0°C 96% 1.3 mph SSW2.1 kmh SSW 3.1 mph5.0 kmh 29.88 in1011.9 mb 0.00 in0.0 mm 0.00 in0.0 mm 0.00 in0.0 mm
07:15 AM 54.0°F12.2°C 53.6°F12.0°C 96% 2.0 mph S3.2 kmh S 3.1 mph5.0 kmh 29.88 in1011.9 mb 0.00 in0.0 mm 0.00 in0.0 mm 0.00 in0.0 mm
07:20 AM 54.0°F12.2°C 53.6°F12.0°C 96% 0.9 mph S1.4 kmh S 3.1 mph5.0 kmh 29.88 in1011.9 mb 0.00 in0.0 mm 0.00 in0.0 mm 0.00 in0.0 mm
07:25 AM 54.0°F12.2°C 53.6°F12.0°C 96% 2.9 mph S4.7 kmh S 4.3 mph6.9 kmh 29.88 in1011.9 mb 0.00 in0.0 mm 0.00 in0.0 mm 0.00 in0.0 mm
07:30 AM 54.1°F12.3°C 53.6°F12.0°C 96% 1.3 mph S2.1 kmh S 4.3 mph6.9 kmh 29.88 in1011.9 mb 0.00 in0.0 mm 0.00 in0.0 mm 0.00 in0.0 mm
07:35 AM 54.1°F12.3°C 53.6°F12.0°C 96% 2.0 mph S3.2 kmh S 3.4 mph5.5 kmh 29.88 in1011.9 mb 0.00 in0.0 mm 0.00 in0.0 mm 0.00 in0.0 mm
07:40 AM 54.1°F12.3°C 53.6°F12.0°C 96% 2.5 mph S4.0 kmh S 4.3 mph6.9 kmh 29.88 in1011.9 mb 0.00 in0.0 mm 0.00 in0.0 mm 0.00 in0.0 mm
07:45 AM 54.3°F12.4°C 53.6°F12.0°C 96% 1.6 mph S2.6 kmh S 4.3 mph6.9 kmh 29.88 in1011.9 mb 0.00 in0.0 mm 0.00 in0.0 mm 0.00 in0.0 mm
07:50 AM 54.3°F12.4°C 53.6°F12.0°C 96% 2.0 mph S3.2 kmh S 4.3 mph6.9 kmh 29.88 in1011.9 mb 0.00 in0.0 mm 0.00 in0.0 mm 0.00 in0.0 mm
07:55 AM 54.5°F12.5°C 55.4°F13.0°C 96% 2.7 mph S4.3 kmh S 4.0 mph6.4 kmh 29.88 in1011.9 mb 0.00 in0.0 mm 0.00 in0.0 mm 0.00 in0.0 mm
08:00 AM 54.7°F12.6°C 55.4°F13.0°C 96% 2.0 mph SSW3.2 kmh SSW 2.9 mph4.7 kmh 29.88 in1011.9 mb 0.00 in0.0 mm 0.00 in0.0 mm 0.00 in0.0 mm
08:05 AM 54.7°F12.6°C 55.4°F13.0°C 96% 2.7 mph SSW4.3 kmh SSW 4.0 mph6.4 kmh 29.88 in1011.9 mb 0.00 in0.0 mm 0.00 in0.0 mm 0.00 in0.0 mm
08:10 AM 54.9°F12.7°C 55.4°F13.0°C 96% 2.5 mph S4.0 kmh S 4.0 mph6.4 kmh 29.88 in1011.9 mb 0.00 in0.0 mm 0.00 in0.0 mm 0.00 in0.0 mm
08:15 AM 54.9°F12.7°C 55.4°F13.0°C 96% 1.3 mph S2.1 kmh S 4.0 mph6.4 kmh 29.88 in1011.9 mb 0.00 in0.0 mm 0.00 in0.0 mm 0.00 in0.0 mm
08:20 AM 55.0°F12.8°C 55.4°F13.0°C 96% 1.6 mph SSW2.6 kmh SSW 3.4 mph5.5 kmh 29.88 in1011.9 mb 0.00 in0.0 mm 0.00 in0.0 mm 0.00 in0.0 mm
08:25 AM 55.0°F12.8°C 55.4°F13.0°C 96% 2.2 mph SSW3.5 kmh SSW 3.4 mph5.5 kmh 29.88 in1011.9 mb 0.00 in0.0 mm 0.00 in0.0 mm 0.00 in0.0 mm
08:30 AM 55.2°F12.9°C 55.4°F13.0°C 96% 0.9 mph SSW1.4 kmh SSW 3.4 mph5.5 kmh 29.88 in1011.9 mb 0.00 in0.0 mm 0.00 in0.0 mm 0.00 in0.0 mm
08:35 AM 55.2°F12.9°C 55.4°F13.0°C 95% 1.1 mph SSW1.8 kmh SSW 2.5 mph4.0 kmh 29.88 in1011.9 mb 0.00 in0.0 mm 0.00 in0.0 mm 0.00 in0.0 mm
08:40 AM 55.4°F13.0°C 55.4°F13.0°C 95% Calm Calm 2.5 mph4.0 kmh 29.91 in1012.9 mb 0.00 in0.0 mm 0.00 in0.0 mm 0.00 in0.0 mm
08:45 AM 55.4°F13.0°C 55.4°F13.0°C 95% Calm Calm 2.5 mph4.0 kmh 29.91 in1012.9 mb 0.00 in0.0 mm 0.00 in0.0 mm 0.00 in0.0 mm
08:50 AM 55.6°F13.1°C 55.4°F13.0°C 95% 0.9 mph SSW1.4 kmh SSW 2.2 mph3.5 kmh 29.91 in1012.9 mb 0.00 in0.0 mm 0.00 in0.0 mm 0.00 in0.0 mm
08:55 AM 55.6°F13.1°C 55.4°F13.0°C 95% 1.1 mph S1.8 kmh S 2.9 mph4.7 kmh 29.88 in1011.9 mb 0.00 in0.0 mm 0.00 in0.0 mm 0.00 in0.0 mm
09:00 AM 55.8°F13.2°C 55.4°F13.0°C 94% Calm Calm 2.9 mph4.7 kmh 29.88 in1011.9 mb 0.00 in0.0 mm 0.00 in0.0 mm 0.00 in0.0 mm
09:05 AM 55.9°F13.3°C 55.4°F13.0°C 94% Calm Calm 2.2 mph3.5 kmh 29.88 in1011.9 mb 0.00 in0.0 mm 0.00 in0.0 mm 0.00 in0.0 mm
09:10 AM 55.9°F13.3°C 55.4°F13.0°C 94% Calm Calm 2.7 mph4.3 kmh 29.88 in1011.9 mb 0.00 in0.0 mm 0.00 in0.0 mm 0.00 in0.0 mm
09:15 AM 55.9°F13.3°C 55.4°F13.0°C 94% 1.1 mph SSW1.8 kmh SSW 2.7 mph4.3 kmh 29.88 in1011.9 mb 0.00 in0.0 mm 0.00 in0.0 mm 0.00 in0.0 mm
09:20 AM 55.9°F13.3°C 55.4°F13.0°C 94% 1.3 mph S2.1 kmh S 2.9 mph4.7 kmh 29.88 in1011.9 mb 0.00 in0.0 mm 0.00 in0.0 mm 0.00 in0.0 mm
09:25 AM 56.1°F13.4°C 55.4°F13.0°C 94% Calm Calm 3.4 mph5.5 kmh 29.88 in1011.9 mb 0.00 in0.0 mm 0.00 in0.0 mm 0.00 in0.0 mm
09:30 AM 56.3°F13.5°C 55.4°F13.0°C 94% 1.6 mph SSE2.6 kmh SSE 3.4 mph5.5 kmh 29.88 in1011.9 mb 0.00 in0.0 mm 0.00 in0.0 mm 0.00 in0.0 mm
09:35 AM 56.3°F13.5°C 55.4°F13.0°C 94% Calm Calm 5.4 mph8.7 kmh 29.88 in1011.9 mb 0.00 in0.0 mm 0.00 in0.0 mm 0.00 in0.0 mm
09:40 AM 56.5°F13.6°C 55.4°F13.0°C 93% 1.1 mph S1.8 kmh S 5.4 mph8.7 kmh 29.85 in1010.8 mb 0.00 in0.0 mm 0.00 in0.0 mm 0.00 in0.0 mm
09:45 AM 56.7°F13.7°C 55.4°F13.0°C 93% 2.7 mph S4.3 kmh S 3.6 mph5.8 kmh 29.85 in1010.8 mb 0.00 in0.0 mm 0.00 in0.0 mm 0.00 in0.0 mm
09:50 AM 56.8°F13.8°C 55.4°F13.0°C 93% 1.1 mph S1.8 kmh S 3.6 mph5.8 kmh 29.85 in1010.8 mb 0.00 in0.0 mm 0.00 in0.0 mm 0.00 in0.0 mm
09:55 AM 57.0°F13.9°C 55.4°F13.0°C 93% 1.3 mph S2.1 kmh S 3.4 mph5.5 kmh 29.88 in1011.9 mb 0.00 in0.0 mm 0.00 in0.0 mm 0.00 in0.0 mm
10:00 AM 57.6°F14.2°C 55.4°F13.0°C 92% 1.1 mph SSE1.8 kmh SSE 3.4 mph5.5 kmh 29.88 in1011.9 mb 0.00 in0.0 mm 0.00 in0.0 mm 0.00 in0.0 mm
10:05 AM 57.9°F14.4°C 55.4°F13.0°C 93% 2.0 mph SSE3.2 kmh SSE 3.6 mph5.8 kmh 29.88 in1011.9 mb 0.00 in0.0 mm 0.00 in0.0 mm 0.00 in0.0 mm
10:10 AM 58.5°F14.7°C 55.4°F13.0°C 92% Calm Calm 3.6 mph5.8 kmh 29.88 in1011.9 mb 0.00 in0.0 mm 0.00 in0.0 mm 0.00 in0.0 mm
10:15 AM 58.6°F14.8°C 55.4°F13.0°C 90% 1.1 mph S1.8 kmh S 2.7 mph4.3 kmh 29.88 in1011.9 mb 0.00 in0.0 mm 0.00 in0.0 mm 0.00 in0.0 mm
10:20 AM 59.0°F15.0°C 55.4°F13.0°C 89% 0.9 mph SSW1.4 kmh SSW 2.5 mph4.0 kmh 29.88 in1011.9 mb 0.00 in0.0 mm 0.00 in0.0 mm 0.00 in0.0 mm
10:25 AM 59.4°F15.2°C 55.4°F13.0°C 88% 2.5 mph SSW4.0 kmh SSW 3.4 mph5.5 kmh 29.85 in1010.8 mb 0.00 in0.0 mm 0.00 in0.0 mm 0.00 in0.0 mm
10:30 AM 59.9°F15.5°C 57.2°F14.0°C 88% 2.0 mph SSW3.2 kmh SSW 3.4 mph5.5 kmh 29.85 in1010.8 mb 0.00 in0.0 mm 0.00 in0.0 mm 0.00 in0.0 mm
10:35 AM 60.4°F15.8°C 57.2°F14.0°C 87% 2.2 mph SSW3.5 kmh SSW 3.4 mph5.5 kmh 29.85 in1010.8 mb 0.00 in0.0 mm 0.00 in0.0 mm 0.00 in0.0 mm
10:40 AM 61.0°F16.1°C 57.2°F14.0°C 85% 2.5 mph S4.0 kmh S 3.8 mph6.1 kmh 29.88 in1011.9 mb 0.00 in0.0 mm 0.00 in0.0 mm 0.00 in0.0 mm
10:45 AM 61.9°F16.6°C 57.2°F14.0°C 84% 2.7 mph SSW4.3 kmh SSW 4.0 mph6.4 kmh 29.88 in1011.9 mb 0.00 in0.0 mm 0.00 in0.0 mm 0.00 in0.0 mm
10:50 AM 63.0°F17.2°C 59.0°F15.0°C 84% 2.2 mph SSW3.5 kmh SSW 4.0 mph6.4 kmh 29.88 in1011.9 mb 0.00 in0.0 mm 0.00 in0.0 mm 0.00 in0.0 mm
10:55 AM 63.9°F17.7°C 57.2°F14.0°C 78% 2.0 mph SSW3.2 kmh SSW 4.0 mph6.4 kmh 29.88 in1011.9 mb 0.00 in0.0 mm 0.00 in0.0 mm 0.00 in0.0 mm
11:00 AM 64.6°F18.1°C 57.2°F14.0°C 79% Calm Calm 3.6 mph5.8 kmh 29.88 in1011.9 mb 0.00 in0.0 mm 0.00 in0.0 mm 0.00 in0.0 mm
11:05 AM 66.0°F18.9°C 59.0°F15.0°C 78% 1.3 mph WSW2.1 kmh WSW 4.0 mph6.4 kmh 29.88 in1011.9 mb 0.00 in0.0 mm 0.00 in0.0 mm 0.00 in0.0 mm
11:10 AM 66.9°F19.4°C 59.0°F15.0°C 74% 2.5 mph WSW4.0 kmh WSW 4.0 mph6.4 kmh 29.88 in1011.9 mb 0.00 in0.0 mm 0.00 in0.0 mm 0.00 in0.0 mm
11:15 AM 67.3°F19.6°C 57.2°F14.0°C 71% Calm Calm 4.0 mph6.4 kmh 29.88 in1011.9 mb 0.00 in0.0 mm 0.00 in0.0 mm 0.00 in0.0 mm
11:20 AM 67.3°F19.6°C 57.2°F14.0°C 69% 2.2 mph W3.5 kmh W 4.3 mph6.9 kmh 29.88 in1011.9 mb 0.00 in0.0 mm 0.00 in0.0 mm 0.00 in0.0 mm
11:25 AM 66.9°F19.4°C 55.4°F13.0°C 68% 3.6 mph W5.8 kmh W 4.9 mph7.9 kmh 29.88 in1011.9 mb 0.00 in0.0 mm 0.00 in0.0 mm 0.00 in0.0 mm
11:30 AM 66.6°F19.2°C 55.4°F13.0°C 69% 0.9 mph WSW1.4 kmh WSW 4.9 mph7.9 kmh 29.88 in1011.9 mb 0.00 in0.0 mm 0.00 in0.0 mm 0.00 in0.0 mm
11:35 AM 66.6°F19.2°C 55.4°F13.0°C 69% 3.8 mph WSW6.1 kmh WSW 6.0 mph9.7 kmh 29.88 in1011.9 mb 0.00 in0.0 mm 0.00 in0.0 mm 0.00 in0.0 mm
11:40 AM 66.6°F19.2°C 55.4°F13.0°C 68% 2.2 mph W3.5 kmh W 6.0 mph9.7 kmh 29.88 in1011.9 mb 0.00 in0.0 mm 0.00 in0.0 mm 0.00 in0.0 mm
11:45 AM 66.7°F19.3°C 55.4°F13.0°C 69% 3.1 mph W5.0 kmh W 4.3 mph6.9 kmh 29.88 in1011.9 mb 0.00 in0.0 mm 0.00 in0.0 mm 0.00 in0.0 mm
11:50 AM 66.9°F19.4°C 55.4°F13.0°C 68% 2.7 mph W4.3 kmh W 4.3 mph6.9 kmh 29.88 in1011.9 mb 0.00 in0.0 mm 0.00 in0.0 mm 0.00 in0.0 mm
11:55 AM 67.1°F19.5°C 57.2°F14.0°C 68% 2.9 mph W4.7 kmh W 5.4 mph8.7 kmh 29.85 in1010.8 mb 0.00 in0.0 mm 0.00 in0.0 mm 0.00 in0.0 mm
12:00 PM 67.1°F19.5°C 57.2°F14.0°C 69% 3.1 mph W5.0 kmh W 5.4 mph8.7 kmh 29.85 in1010.8 mb 0.00 in0.0 mm 0.00 in0.0 mm 0.00 in0.0 mm
12:05 PM 67.5°F19.7°C 57.2°F14.0°C 68% 2.2 mph W3.5 kmh W 4.9 mph7.9 kmh 29.85 in1010.8 mb 0.00 in0.0 mm 0.00 in0.0 mm 0.00 in0.0 mm
12:10 PM 67.8°F19.9°C 57.2°F14.0°C 68% 1.3 mph W2.1 kmh W 4.9 mph7.9 kmh 29.82 in1009.8 mb 0.00 in0.0 mm 0.00 in0.0 mm 0.00 in0.0 mm
12:15 PM 68.4°F20.2°C 57.2°F14.0°C 66% 3.6 mph W5.8 kmh W 4.7 mph7.6 kmh 29.82 in1009.8 mb 0.00 in0.0 mm 0.00 in0.0 mm 0.00 in0.0 mm
12:20 PM 68.4°F20.2°C 55.4°F13.0°C 64% 1.3 mph WSW2.1 kmh WSW 4.7 mph7.6 kmh 29.82 in1009.8 mb 0.00 in0.0 mm 0.00 in0.0 mm 0.00 in0.0 mm
12:25 PM 68.7°F20.4°C 57.2°F14.0°C 66% 2.2 mph WSW3.5 kmh WSW 3.8 mph6.1 kmh 29.82 in1009.8 mb 0.00 in0.0 mm 0.00 in0.0 mm 0.00 in0.0 mm
12:30 PM 69.1°F20.6°C 57.2°F14.0°C 65% 2.9 mph W4.7 kmh W 4.3 mph6.9 kmh 29.82 in1009.8 mb 0.00 in0.0 mm 0.00 in0.0 mm 0.00 in0.0 mm
12:35 PM 69.3°F20.7°C 55.4°F13.0°C 63% 2.7 mph W4.3 kmh W 4.9 mph7.9 kmh 29.82 in1009.8 mb 0.00 in0.0 mm 0.00 in0.0 mm 0.00 in0.0 mm
12:40 PM 69.1°F20.6°C 55.4°F13.0°C 62% 0.9 mph W1.4 kmh W 5.4 mph8.7 kmh 29.82 in1009.8 mb 0.00 in0.0 mm 0.00 in0.0 mm 0.00 in0.0 mm
12:45 PM 68.9°F20.5°C 57.2°F14.0°C 64% 1.3 mph WSW2.1 kmh WSW 5.4 mph8.7 kmh 29.82 in1009.8 mb 0.00 in0.0 mm 0.00 in0.0 mm 0.00 in0.0 mm
12:50 PM 69.1°F20.6°C 57.2°F14.0°C 64% 2.0 mph W3.2 kmh W 4.5 mph7.2 kmh 29.82 in1009.8 mb 0.00 in0.0 mm 0.00 in0.0 mm 0.00 in0.0 mm
12:55 PM 70.2°F21.2°C 57.2°F14.0°C 63% 2.2 mph W3.5 kmh W 4.3 mph6.9 kmh 29.79 in1008.8 mb 0.00 in0.0 mm 0.00 in0.0 mm 0.00 in0.0 mm
01:00 PM 70.7°F21.5°C 57.2°F14.0°C 61% 4.0 mph W6.4 kmh W 5.4 mph8.7 kmh 29.79 in1008.8 mb 0.00 in0.0 mm 0.00 in0.0 mm 0.00 in0.0 mm
01:05 PM 70.9°F21.6°C 57.2°F14.0°C 60% 3.4 mph W5.5 kmh W 5.4 mph8.7 kmh 29.79 in1008.8 mb 0.00 in0.0 mm 0.00 in0.0 mm 0.00 in0.0 mm
01:10 PM 70.9°F21.6°C 57.2°F14.0°C 60% 3.4 mph W5.5 kmh W 5.4 mph8.7 kmh 29.82 in1009.8 mb 0.00 in0.0 mm 0.00 in0.0 mm 0.00 in0.0 mm
01:15 PM 71.1°F21.7°C 57.2°F14.0°C 61% 1.1 mph W1.8 kmh W 6.3 mph10.1 kmh 29.82 in1009.8 mb 0.00 in0.0 mm 0.00 in0.0 mm 0.00 in0.0 mm
01:20 PM 71.1°F21.7°C 55.4°F13.0°C 59% 1.6 mph WSW2.6 kmh WSW 6.3 mph10.1 kmh 29.82 in1009.8 mb 0.00 in0.0 mm 0.00 in0.0 mm 0.00 in0.0 mm
01:25 PM 70.5°F21.4°C 55.4°F13.0°C 59% 2.9 mph WSW4.7 kmh WSW 5.8 mph9.3 kmh 29.82 in1009.8 mb 0.00 in0.0 mm 0.00 in0.0 mm 0.00 in0.0 mm
01:30 PM 70.2°F21.2°C 55.4°F13.0°C 59% 3.1 mph WSW5.0 kmh WSW 5.8 mph9.3 kmh 29.82 in1009.8 mb 0.00 in0.0 mm 0.00 in0.0 mm 0.00 in0.0 mm
01:35 PM 70.2°F21.2°C 55.4°F13.0°C 59% 2.7 mph SW4.3 kmh SW 5.8 mph9.3 kmh 29.82 in1009.8 mb 0.00 in0.0 mm 0.00 in0.0 mm 0.00 in0.0 mm
01:40 PM 70.2°F21.2°C 55.4°F13.0°C 59% 2.5 mph SW4.0 kmh SW 4.9 mph7.9 kmh 29.82 in1009.8 mb 0.00 in0.0 mm 0.00 in0.0 mm 0.00 in0.0 mm
01:45 PM 69.8°F21.0°C 55.4°F13.0°C 60% 1.6 mph WSW2.6 kmh WSW 4.9 mph7.9 kmh 29.82 in1009.8 mb 0.00 in0.0 mm 0.00 in0.0 mm 0.00 in0.0 mm
01:50 PM 69.8°F21.0°C 55.4°F13.0°C 60% 1.1 mph WSW1.8 kmh WSW 5.8 mph9.3 kmh 29.82 in1009.8 mb 0.00 in0.0 mm 0.00 in0.0 mm 0.00 in0.0 mm
01:55 PM 69.8°F21.0°C 55.4°F13.0°C 61% 2.9 mph W4.7 kmh W 5.8 mph9.3 kmh 29.82 in1009.8 mb 0.00 in0.0 mm 0.00 in0.0 mm 0.00 in0.0 mm
02:00 PM 70.0°F21.1°C 55.4°F13.0°C 61% 2.9 mph WSW4.7 kmh WSW 4.7 mph7.6 kmh 29.82 in1009.8 mb 0.00 in0.0 mm 0.00 in0.0 mm 0.00 in0.0 mm
02:05 PM 69.6°F20.9°C 55.4°F13.0°C 60% 4.7 mph WSW7.6 kmh WSW 8.5 mph13.7 kmh 29.82 in1009.8 mb 0.00 in0.0 mm 0.00 in0.0 mm 0.00 in0.0 mm
02:10 PM 69.1°F20.6°C 55.4°F13.0°C 60% 4.9 mph WSW7.9 kmh WSW 8.5 mph13.7 kmh 29.82 in1009.8 mb 0.00 in0.0 mm 0.00 in0.0 mm 0.00 in0.0 mm
02:15 PM 68.9°F20.5°C 55.4°F13.0°C 61% 2.5 mph WSW4.0 kmh WSW 7.8 mph12.6 kmh 29.82 in1009.8 mb 0.00 in0.0 mm 0.00 in0.0 mm 0.00 in0.0 mm
02:20 PM 69.1°F20.6°C 55.4°F13.0°C 62% 2.0 mph WSW3.2 kmh WSW 4.9 mph7.9 kmh 29.82 in1009.8 mb 0.00 in0.0 mm 0.00 in0.0 mm 0.00 in0.0 mm
02:25 PM 69.4°F20.8°C 55.4°F13.0°C 62% 1.3 mph W2.1 kmh W 4.3 mph6.9 kmh 29.79 in1008.8 mb 0.00 in0.0 mm 0.00 in0.0 mm 0.00 in0.0 mm
02:30 PM 69.8°F21.0°C 55.4°F13.0°C 62% Calm Calm 3.8 mph6.1 kmh 29.79 in1008.8 mb 0.00 in0.0 mm 0.00 in0.0 mm 0.00 in0.0 mm
02:35 PM 70.2°F21.2°C 55.4°F13.0°C 61% 1.1 mph SW1.8 kmh SW 3.1 mph5.0 kmh 29.79 in1008.8 mb 0.00 in0.0 mm 0.00 in0.0 mm 0.00 in0.0 mm
02:40 PM 70.5°F21.4°C 55.4°F13.0°C 61% 2.7 mph SW4.3 kmh SW 4.3 mph6.9 kmh 29.79 in1008.8 mb 0.00 in0.0 mm 0.00 in0.0 mm 0.00 in0.0 mm
02:45 PM 70.7°F21.5°C 57.2°F14.0°C 60% 1.3 mph WSW2.1 kmh WSW 4.3 mph6.9 kmh 29.79 in1008.8 mb 0.00 in0.0 mm 0.00 in0.0 mm 0.00 in0.0 mm
02:50 PM 70.5°F21.4°C 55.4°F13.0°C 59% 2.0 mph WSW3.2 kmh WSW 3.6 mph5.8 kmh 29.79 in1008.8 mb 0.00 in0.0 mm 0.00 in0.0 mm 0.00 in0.0 mm
02:55 PM 70.3°F21.3°C 55.4°F13.0°C 59% Calm Calm 3.6 mph5.8 kmh 29.79 in1008.8 mb 0.00 in0.0 mm 0.00 in0.0 mm 0.00 in0.0 mm
03:00 PM 70.3°F21.3°C 55.4°F13.0°C 59% 2.7 mph W4.3 kmh W 4.0 mph6.4 kmh 29.79 in1008.8 mb 0.00 in0.0 mm 0.00 in0.0 mm 0.00 in0.0 mm
03:05 PM 70.5°F21.4°C 55.4°F13.0°C 58% 2.2 mph WSW3.5 kmh WSW 4.9 mph7.9 kmh 29.79 in1008.8 mb 0.00 in0.0 mm 0.00 in0.0 mm 0.00 in0.0 mm
03:10 PM 70.9°F21.6°C 55.4°F13.0°C 58% 2.9 mph SSW4.7 kmh SSW 4.9 mph7.9 kmh 29.79 in1008.8 mb 0.00 in0.0 mm 0.00 in0.0 mm 0.00 in0.0 mm
03:15 PM 71.4°F21.9°C 55.4°F13.0°C 58% Calm Calm 4.9 mph7.9 kmh 29.79 in1008.8 mb 0.00 in0.0 mm 0.00 in0.0 mm 0.00 in0.0 mm
03:20 PM 71.6°F22.0°C 55.4°F13.0°C 56% 2.5 mph W4.0 kmh W 4.7 mph7.6 kmh 29.79 in1008.8 mb 0.00 in0.0 mm 0.00 in0.0 mm 0.00 in0.0 mm
03:25 PM 71.8°F22.1°C 55.4°F13.0°C 57% 1.1 mph WSW1.8 kmh WSW 4.0 mph6.4 kmh 29.79 in1008.8 mb 0.00 in0.0 mm 0.00 in0.0 mm 0.00 in0.0 mm
03:30 PM 71.6°F22.0°C 55.4°F13.0°C 55% 3.4 mph WSW5.5 kmh WSW 4.0 mph6.4 kmh 29.79 in1008.8 mb 0.00 in0.0 mm 0.00 in0.0 mm 0.00 in0.0 mm
03:35 PM 71.4°F21.9°C 55.4°F13.0°C 57% 1.3 mph SW2.1 kmh SW 4.3 mph6.9 kmh 29.79 in1008.8 mb 0.00 in0.0 mm 0.00 in0.0 mm 0.00 in0.0 mm
03:40 PM 71.4°F21.9°C 55.4°F13.0°C 56% 1.6 mph SW2.6 kmh SW 4.3 mph6.9 kmh 29.79 in1008.8 mb 0.00 in0.0 mm 0.00 in0.0 mm 0.00 in0.0 mm
03:45 PM 71.1°F21.7°C 55.4°F13.0°C 57% 0.9 mph SW1.4 kmh SW 4.0 mph6.4 kmh 29.79 in1008.8 mb 0.00 in0.0 mm 0.00 in0.0 mm 0.00 in0.0 mm
03:50 PM 71.2°F21.8°C 55.4°F13.0°C 57% 3.1 mph SW5.0 kmh SW 4.7 mph7.6 kmh 29.79 in1008.8 mb 0.00 in0.0 mm 0.00 in0.0 mm 0.00 in0.0 mm
03:55 PM 70.9°F21.6°C 55.4°F13.0°C 57% 2.2 mph SW3.5 kmh SW 4.9 mph7.9 kmh 29.77 in1008.1 mb 0.00 in0.0 mm 0.00 in0.0 mm 0.00 in0.0 mm
04:00 PM 70.7°F21.5°C 55.4°F13.0°C 56% 2.2 mph SSW3.5 kmh SSW 5.6 mph9.0 kmh 29.77 in1008.1 mb 0.00 in0.0 mm 0.00 in0.0 mm 0.00 in0.0 mm
04:05 PM 70.3°F21.3°C 53.6°F12.0°C 56% 2.7 mph SSW4.3 kmh SSW 5.6 mph9.0 kmh 29.77 in1008.1 mb 0.00 in0.0 mm 0.00 in0.0 mm 0.00 in0.0 mm
04:10 PM 70.3°F21.3°C 55.4°F13.0°C 57% 2.9 mph SSW4.7 kmh SSW 5.8 mph9.3 kmh 29.77 in1008.1 mb 0.00 in0.0 mm 0.00 in0.0 mm 0.00 in0.0 mm
04:15 PM 70.0°F21.1°C 53.6°F12.0°C 57% Calm Calm 5.8 mph9.3 kmh 29.77 in1008.1 mb 0.00 in0.0 mm 0.00 in0.0 mm 0.00 in0.0 mm
04:20 PM 70.2°F21.2°C 55.4°F13.0°C 58% 2.7 mph SW4.3 kmh SW 3.6 mph5.8 kmh 29.77 in1008.1 mb 0.00 in0.0 mm 0.00 in0.0 mm 0.00 in0.0 mm
04:25 PM 70.3°F21.3°C 55.4°F13.0°C 58% 2.2 mph S3.5 kmh S 6.5 mph10.5 kmh 29.77 in1008.1 mb 0.00 in0.0 mm 0.00 in0.0 mm 0.00 in0.0 mm
04:30 PM 70.2°F21.2°C 55.4°F13.0°C 57% 3.6 mph S5.8 kmh S 6.5 mph10.5 kmh 29.77 in1008.1 mb 0.00 in0.0 mm 0.00 in0.0 mm 0.00 in0.0 mm
04:35 PM 69.6°F20.9°C 53.6°F12.0°C 57% 0.9 mph SSW1.4 kmh SSW 5.4 mph8.7 kmh 29.77 in1008.1 mb 0.00 in0.0 mm 0.00 in0.0 mm 0.00 in0.0 mm
04:40 PM 69.4°F20.8°C 53.6°F12.0°C 58% 3.1 mph SSW5.0 kmh SSW 5.4 mph8.7 kmh 29.77 in1008.1 mb 0.00 in0.0 mm 0.00 in0.0 mm 0.00 in0.0 mm
04:45 PM 69.4°F20.8°C 53.6°F12.0°C 58% 1.1 mph SW1.8 kmh SW 4.0 mph6.4 kmh 29.77 in1008.1 mb 0.00 in0.0 mm 0.00 in0.0 mm 0.00 in0.0 mm
04:50 PM 69.6°F20.9°C 55.4°F13.0°C 58% 0.9 mph SW1.4 kmh SW 3.8 mph6.1 kmh 29.77 in1008.1 mb 0.00 in0.0 mm 0.00 in0.0 mm 0.00 in0.0 mm
04:55 PM 69.6°F20.9°C 55.4°F13.0°C 58% 0.9 mph WSW1.4 kmh WSW 3.8 mph6.1 kmh 29.77 in1008.1 mb 0.00 in0.0 mm 0.00 in0.0 mm 0.00 in0.0 mm
05:00 PM 69.4°F20.8°C 53.6°F12.0°C 58% 1.1 mph W1.8 kmh W 4.9 mph7.9 kmh 29.77 in1008.1 mb 0.00 in0.0 mm 0.00 in0.0 mm 0.00 in0.0 mm
05:05 PM 69.1°F20.6°C 55.4°F13.0°C 59% 0.9 mph SW1.4 kmh SW 4.9 mph7.9 kmh 29.77 in1008.1 mb 0.00 in0.0 mm 0.00 in0.0 mm 0.00 in0.0 mm
05:10 PM 68.7°F20.4°C 55.4°F13.0°C 60% 3.1 mph S5.0 kmh S 6.0 mph9.7 kmh 29.77 in1008.1 mb 0.00 in0.0 mm 0.00 in0.0 mm 0.00 in0.0 mm
05:15 PM 68.4°F20.2°C 55.4°F13.0°C 60% 4.3 mph S6.9 kmh S 6.3 mph10.1 kmh 29.77 in1008.1 mb 0.00 in0.0 mm 0.00 in0.0 mm 0.00 in0.0 mm
05:20 PM 68.4°F20.2°C 55.4°F13.0°C 61% 4.0 mph S6.4 kmh S 6.3 mph10.1 kmh 29.77 in1008.1 mb 0.00 in0.0 mm 0.00 in0.0 mm 0.00 in0.0 mm
05:25 PM 68.2°F20.1°C 53.6°F12.0°C 61% 4.5 mph S7.2 kmh S 6.3 mph10.1 kmh 29.77 in1008.1 mb 0.00 in0.0 mm 0.00 in0.0 mm 0.00 in0.0 mm
05:30 PM 68.2°F20.1°C 55.4°F13.0°C 62% 2.5 mph S4.0 kmh S 6.3 mph10.1 kmh 29.77 in1008.1 mb 0.00 in0.0 mm 0.00 in0.0 mm 0.00 in0.0 mm
05:35 PM 68.0°F20.0°C 55.4°F13.0°C 62% 3.8 mph S6.1 kmh S 5.6 mph9.0 kmh 29.77 in1008.1 mb 0.00 in0.0 mm 0.00 in0.0 mm 0.00 in0.0 mm
05:40 PM 67.6°F19.8°C 55.4°F13.0°C 63% 3.6 mph S5.8 kmh S 5.6 mph9.0 kmh 29.77 in1008.1 mb 0.00 in0.0 mm 0.00 in0.0 mm 0.00 in0.0 mm
05:45 PM 67.5°F19.7°C 55.4°F13.0°C 63% 5.4 mph S8.7 kmh S 6.5 mph10.5 kmh 29.77 in1008.1 mb 0.00 in0.0 mm 0.00 in0.0 mm 0.00 in0.0 mm
05:50 PM 66.9°F19.4°C 55.4°F13.0°C 64% 2.0 mph SSE3.2 kmh SSE 6.5 mph10.5 kmh 29.77 in1008.1 mb 0.00 in0.0 mm 0.00 in0.0 mm 0.00 in0.0 mm
05:55 PM 66.4°F19.1°C 53.6°F12.0°C 64% 1.6 mph SSE2.6 kmh SSE 4.3 mph6.9 kmh 29.77 in1008.1 mb 0.00 in0.0 mm 0.00 in0.0 mm 0.00 in0.0 mm
06:00 PM 66.2°F19.0°C 55.4°F13.0°C 65% 2.9 mph SSE4.7 kmh SSE 3.4 mph5.5 kmh 29.77 in1008.1 mb 0.00 in0.0 mm 0.00 in0.0 mm 0.00 in0.0 mm
06:05 PM 65.8°F18.8°C 55.4°F13.0°C 67% 0.9 mph SSE1.4 kmh SSE 3.1 mph5.0 kmh 29.77 in1008.1 mb 0.00 in0.0 mm 0.00 in0.0 mm 0.00 in0.0 mm
06:10 PM 65.5°F18.6°C 55.4°F13.0°C 67% Calm Calm 3.6 mph5.8 kmh 29.77 in1008.1 mb 0.00 in0.0 mm 0.00 in0.0 mm 0.00 in0.0 mm
06:15 PM 65.1°F18.4°C 53.6°F12.0°C 67% Calm Calm 3.6 mph5.8 kmh 29.77 in1008.1 mb 0.00 in0.0 mm 0.00 in0.0 mm 0.00 in0.0 mm
06:20 PM 64.9°F18.3°C 55.4°F13.0°C 68% Calm Calm 2.7 mph4.3 kmh 29.77 in1008.1 mb 0.00 in0.0 mm 0.00 in0.0 mm 0.00 in0.0 mm
06:25 PM 64.8°F18.2°C 55.4°F13.0°C 68% 0.9 mph SSE1.4 kmh SSE 2.0 mph3.2 kmh 29.79 in1008.8 mb 0.00 in0.0 mm 0.00 in0.0 mm 0.00 in0.0 mm
06:30 PM 64.6°F18.1°C 53.6°F12.0°C 68% Calm Calm 2.0 mph3.2 kmh 29.79 in1008.8 mb 0.00 in0.0 mm 0.00 in0.0 mm 0.00 in0.0 mm
06:35 PM 64.4°F18.0°C 53.6°F12.0°C 69% Calm Calm 2.2 mph3.5 kmh 29.79 in1008.8 mb 0.00 in0.0 mm 0.00 in0.0 mm 0.00 in0.0 mm
06:40 PM 64.2°F17.9°C 53.6°F12.0°C 69% 1.3 mph S2.1 kmh S 3.6 mph5.8 kmh 29.79 in1008.8 mb 0.00 in0.0 mm 0.00 in0.0 mm 0.00 in0.0 mm
06:45 PM 63.9°F17.7°C 53.6°F12.0°C 69% 2.5 mph SSE4.0 kmh SSE 3.6 mph5.8 kmh 29.79 in1008.8 mb 0.00 in0.0 mm 0.00 in0.0 mm 0.00 in0.0 mm
06:50 PM 63.7°F17.6°C 55.4°F13.0°C 71% 2.7 mph SSE4.3 kmh SSE 3.1 mph5.0 kmh 29.79 in1008.8 mb 0.00 in0.0 mm 0.00 in0.0 mm 0.00 in0.0 mm
06:55 PM 63.7°F17.6°C 55.4°F13.0°C 72% 2.7 mph SSE4.3 kmh SSE 3.4 mph5.5 kmh 29.77 in1008.1 mb 0.00 in0.0 mm 0.00 in0.0 mm 0.00 in0.0 mm
07:00 PM 63.5°F17.5°C 55.4°F13.0°C 72% 2.2 mph SSE3.5 kmh SSE 4.3 mph6.9 kmh 29.77 in1008.1 mb 0.00 in0.0 mm 0.00 in0.0 mm 0.00 in0.0 mm
07:05 PM 63.7°F17.6°C 55.4°F13.0°C 72% 2.9 mph SSE4.7 kmh SSE 4.3 mph6.9 kmh 29.77 in1008.1 mb 0.00 in0.0 mm 0.00 in0.0 mm 0.00 in0.0 mm
07:10 PM 63.7°F17.6°C 55.4°F13.0°C 72% 2.7 mph S4.3 kmh S 4.0 mph6.4 kmh 29.79 in1008.8 mb 0.00 in0.0 mm 0.00 in0.0 mm 0.00 in0.0 mm
07:15 PM 63.7°F17.6°C 55.4°F13.0°C 72% 2.7 mph S4.3 kmh S 4.3 mph6.9 kmh 29.79 in1008.8 mb 0.00 in0.0 mm 0.00 in0.0 mm 0.00 in0.0 mm
07:20 PM 63.7°F17.6°C 55.4°F13.0°C 72% 2.7 mph S4.3 kmh S 4.3 mph6.9 kmh 29.79 in1008.8 mb 0.00 in0.0 mm 0.00 in0.0 mm 0.00 in0.0 mm
07:25 PM 63.7°F17.6°C 55.4°F13.0°C 72% 2.7 mph S4.3 kmh S 3.8 mph6.1 kmh 29.77 in1008.1 mb 0.00 in0.0 mm 0.00 in0.0 mm 0.00 in0.0 mm
07:30 PM 63.7°F17.6°C 55.4°F13.0°C 72% 2.5 mph S4.0 kmh S 3.4 mph5.5 kmh 29.77 in1008.1 mb 0.00 in0.0 mm 0.00 in0.0 mm 0.00 in0.0 mm
07:35 PM 63.5°F17.5°C 55.4°F13.0°C 72% 2.0 mph S3.2 kmh S 3.4 mph5.5 kmh 29.77 in1008.1 mb 0.00 in0.0 mm 0.00 in0.0 mm 0.00 in0.0 mm
07:40 PM 63.5°F17.5°C 55.4°F13.0°C 72% 2.0 mph S3.2 kmh S 2.7 mph4.3 kmh 29.77 in1008.1 mb 0.00 in0.0 mm 0.00 in0.0 mm 0.00 in0.0 mm
07:45 PM 63.5°F17.5°C 55.4°F13.0°C 72% 0.9 mph S1.4 kmh S 3.1 mph5.0 kmh 29.77 in1008.1 mb 0.00 in0.0 mm 0.00 in0.0 mm 0.00 in0.0 mm
07:50 PM 63.3°F17.4°C 55.4°F13.0°C 73% Calm Calm 3.1 mph5.0 kmh 29.77 in1008.1 mb 0.00 in0.0 mm 0.00 in0.0 mm 0.00 in0.0 mm
07:55 PM 63.3°F17.4°C 55.4°F13.0°C 73% 3.4 mph S5.5 kmh S 4.3 mph6.9 kmh 29.77 in1008.1 mb 0.00 in0.0 mm 0.00 in0.0 mm 0.00 in0.0 mm
08:00 PM 63.0°F17.2°C 55.4°F13.0°C 73% 2.2 mph S3.5 kmh S 4.3 mph6.9 kmh 29.77 in1008.1 mb 0.00 in0.0 mm 0.00 in0.0 mm 0.00 in0.0 mm
08:05 PM 62.8°F17.1°C 53.6°F12.0°C 73% 4.0 mph S6.4 kmh S 5.6 mph9.0 kmh 29.77 in1008.1 mb 0.00 in0.0 mm 0.00 in0.0 mm 0.00 in0.0 mm
08:10 PM 62.4°F16.9°C 55.4°F13.0°C 74% 2.7 mph S4.3 kmh S 5.6 mph9.0 kmh 29.77 in1008.1 mb 0.00 in0.0 mm 0.00 in0.0 mm 0.00 in0.0 mm
08:15 PM 62.1°F16.7°C 55.4°F13.0°C 75% 2.7 mph S4.3 kmh S 4.0 mph6.4 kmh 29.77 in1008.1 mb 0.00 in0.0 mm 0.00 in0.0 mm 0.00 in0.0 mm
08:20 PM 61.9°F16.6°C 55.4°F13.0°C 76% 3.1 mph S5.0 kmh S 4.0 mph6.4 kmh 29.77 in1008.1 mb 0.00 in0.0 mm 0.00 in0.0 mm 0.00 in0.0 mm
08:25 PM 61.7°F16.5°C 55.4°F13.0°C 76% 2.9 mph S4.7 kmh S 4.5 mph7.2 kmh 29.79 in1008.8 mb 0.00 in0.0 mm 0.00 in0.0 mm 0.00 in0.0 mm
08:30 PM 61.9°F16.6°C 55.4°F13.0°C 76% 2.9 mph S4.7 kmh S 4.9 mph7.9 kmh 29.79 in1008.8 mb 0.00 in0.0 mm 0.00 in0.0 mm 0.00 in0.0 mm
08:35 PM 61.7°F16.5°C 55.4°F13.0°C 76% 1.1 mph S1.8 kmh S 4.9 mph7.9 kmh 29.79 in1008.8 mb 0.00 in0.0 mm 0.00 in0.0 mm 0.00 in0.0 mm
08:40 PM 61.9°F16.6°C 55.4°F13.0°C 76% 2.0 mph S3.2 kmh S 4.0 mph6.4 kmh 29.77 in1008.1 mb 0.00 in0.0 mm 0.00 in0.0 mm 0.00 in0.0 mm
08:45 PM 61.9°F16.6°C 55.4°F13.0°C 76% 2.0 mph SSW3.2 kmh SSW 4.0 mph6.4 kmh 29.77 in1008.1 mb 0.00 in0.0 mm 0.00 in0.0 mm 0.00 in0.0 mm
08:50 PM 61.9°F16.6°C 55.4°F13.0°C 76% 2.5 mph S4.0 kmh S 3.8 mph6.1 kmh 29.77 in1008.1 mb 0.00 in0.0 mm 0.00 in0.0 mm 0.00 in0.0 mm
08:55 PM 61.7°F16.5°C 55.4°F13.0°C 76% 3.1 mph S5.0 kmh S 4.9 mph7.9 kmh 29.79 in1008.8 mb 0.00 in0.0 mm 0.00 in0.0 mm 0.00 in0.0 mm
09:00 PM 61.5°F16.4°C 53.6°F12.0°C 76% 3.8 mph S6.1 kmh S 5.6 mph9.0 kmh 29.79 in1008.8 mb 0.00 in0.0 mm 0.00 in0.0 mm 0.00 in0.0 mm
09:05 PM 61.5°F16.4°C 53.6°F12.0°C 76% 4.0 mph S6.4 kmh S 7.4 mph11.9 kmh 29.79 in1008.8 mb 0.00 in0.0 mm 0.00 in0.0 mm 0.00 in0.0 mm
09:10 PM 61.3°F16.3°C 53.6°F12.0°C 76% 3.6 mph S5.8 kmh S 7.4 mph11.9 kmh 29.77 in1008.1 mb 0.00 in0.0 mm 0.00 in0.0 mm 0.00 in0.0 mm
09:15 PM 61.2°F16.2°C 53.6°F12.0°C 75% 3.8 mph S6.1 kmh S 5.6 mph9.0 kmh 29.77 in1008.1 mb 0.00 in0.0 mm 0.00 in0.0 mm 0.00 in0.0 mm
09:20 PM 61.0°F16.1°C 53.6°F12.0°C 76% 3.6 mph S5.8 kmh S 4.9 mph7.9 kmh 29.77 in1008.1 mb 0.00 in0.0 mm 0.00 in0.0 mm 0.00 in0.0 mm
09:25 PM 60.8°F16.0°C 53.6°F12.0°C 76% 3.6 mph S5.8 kmh S 4.7 mph7.6 kmh 29.77 in1008.1 mb 0.00 in0.0 mm 0.00 in0.0 mm 0.00 in0.0 mm
09:30 PM 60.4°F15.8°C 53.6°F12.0°C 76% 3.6 mph S5.8 kmh S 5.4 mph8.7 kmh 29.77 in1008.1 mb 0.00 in0.0 mm 0.00 in0.0 mm 0.00 in0.0 mm
09:35 PM 60.4°F15.8°C 53.6°F12.0°C 77% 3.4 mph S5.5 kmh S 6.3 mph10.1 kmh 29.77 in1008.1 mb 0.00 in0.0 mm 0.00 in0.0 mm 0.00 in0.0 mm
09:40 PM 60.1°F15.6°C 53.6°F12.0°C 76% 3.6 mph S5.8 kmh S 6.3 mph10.1 kmh 29.77 in1008.1 mb 0.00 in0.0 mm 0.00 in0.0 mm 0.00 in0.0 mm
09:45 PM 60.1°F15.6°C 53.6°F12.0°C 77% 3.8 mph S6.1 kmh S 6.3 mph10.1 kmh 29.77 in1008.1 mb 0.00 in0.0 mm 0.00 in0.0 mm 0.00 in0.0 mm
09:50 PM 59.9°F15.5°C 53.6°F12.0°C 77% 3.1 mph S5.0 kmh S 4.0 mph6.4 kmh 29.77 in1008.1 mb 0.00 in0.0 mm 0.00 in0.0 mm 0.00 in0.0 mm
09:55 PM 59.5°F15.3°C 53.6°F12.0°C 77% 3.4 mph S5.5 kmh S 4.7 mph7.6 kmh 29.79 in1008.8 mb 0.00 in0.0 mm 0.00 in0.0 mm 0.00 in0.0 mm
10:00 PM 59.7°F15.4°C 53.6°F12.0°C 77% 2.7 mph S4.3 kmh S 4.7 mph7.6 kmh 29.79 in1008.8 mb 0.00 in0.0 mm 0.00 in0.0 mm 0.00 in0.0 mm
10:05 PM 59.9°F15.5°C 53.6°F12.0°C 76% 2.7 mph S4.3 kmh S 4.3 mph6.9 kmh 29.79 in1008.8 mb 0.00 in0.0 mm 0.00 in0.0 mm 0.00 in0.0 mm
10:10 PM 60.1°F15.6°C 53.6°F12.0°C 75% 2.5 mph S4.0 kmh S 3.8 mph6.1 kmh 29.77 in1008.1 mb 0.00 in0.0 mm 0.00 in0.0 mm 0.00 in0.0 mm
10:15 PM 60.1°F15.6°C 53.6°F12.0°C 75% 2.5 mph S4.0 kmh S 3.8 mph6.1 kmh 29.77 in1008.1 mb 0.00 in0.0 mm 0.00 in0.0 mm 0.00 in0.0 mm
10:20 PM 60.1°F15.6°C 53.6°F12.0°C 75% Calm Calm 3.8 mph6.1 kmh 29.77 in1008.1 mb 0.00 in0.0 mm 0.00 in0.0 mm 0.00 in0.0 mm
10:25 PM 60.4°F15.8°C 51.8°F11.0°C 74% 0.9 mph S1.4 kmh S 3.8 mph6.1 kmh 29.77 in1008.1 mb 0.00 in0.0 mm 0.00 in0.0 mm 0.00 in0.0 mm
10:30 PM 60.6°F15.9°C 51.8°F11.0°C 73% 1.6 mph SSW2.6 kmh SSW 2.5 mph4.0 kmh 29.77 in1008.1 mb 0.00 in0.0 mm 0.00 in0.0 mm 0.00 in0.0 mm
10:35 PM 60.8°F16.0°C 51.8°F11.0°C 73% 2.0 mph SSW3.2 kmh SSW 2.7 mph4.3 kmh 29.77 in1008.1 mb 0.00 in0.0 mm 0.00 in0.0 mm 0.00 in0.0 mm
10:40 PM 60.8°F16.0°C 51.8°F11.0°C 72% 2.0 mph S3.2 kmh S 3.6 mph5.8 kmh 29.77 in1008.1 mb 0.00 in0.0 mm 0.00 in0.0 mm 0.00 in0.0 mm
10:45 PM 61.0°F16.1°C 51.8°F11.0°C 71% 2.0 mph S3.2 kmh S 3.6 mph5.8 kmh 29.77 in1008.1 mb 0.00 in0.0 mm 0.00 in0.0 mm 0.00 in0.0 mm
10:50 PM 61.2°F16.2°C 51.8°F11.0°C 71% 2.5 mph S4.0 kmh S 3.4 mph5.5 kmh 29.77 in1008.1 mb 0.00 in0.0 mm 0.00 in0.0 mm 0.00 in0.0 mm
10:55 PM 61.2°F16.2°C 51.8°F11.0°C 70% 2.2 mph S3.5 kmh S 3.4 mph5.5 kmh 29.77 in1008.1 mb 0.00 in0.0 mm 0.00 in0.0 mm 0.00 in0.0 mm
11:00 PM 61.2°F16.2°C 51.8°F11.0°C 70% 2.9 mph S4.7 kmh S 3.8 mph6.1 kmh 29.77 in1008.1 mb 0.00 in0.0 mm 0.00 in0.0 mm 0.00 in0.0 mm
11:05 PM 61.3°F16.3°C 51.8°F11.0°C 70% 2.2 mph S3.5 kmh S 3.8 mph6.1 kmh 29.77 in1008.1 mb 0.00 in0.0 mm 0.00 in0.0 mm 0.00 in0.0 mm
11:10 PM 61.3°F16.3°C 51.8°F11.0°C 70% 2.5 mph SSW4.0 kmh SSW 3.8 mph6.1 kmh 29.77 in1008.1 mb 0.00 in0.0 mm 0.00 in0.0 mm 0.00 in0.0 mm
11:15 PM 61.5°F16.4°C 51.8°F11.0°C 69% 2.0 mph SSW3.2 kmh SSW 3.8 mph6.1 kmh 29.77 in1008.1 mb 0.00 in0.0 mm 0.00 in0.0 mm 0.00 in0.0 mm
11:20 PM 61.5°F16.4°C 51.8°F11.0°C 69% 2.5 mph SSW4.0 kmh SSW 3.4 mph5.5 kmh 29.77 in1008.1 mb 0.00 in0.0 mm 0.00 in0.0 mm 0.00 in0.0 mm
11:25 PM 61.3°F16.3°C 51.8°F11.0°C 70% 2.7 mph S4.3 kmh S 4.0 mph6.4 kmh 29.77 in1008.1 mb 0.00 in0.0 mm 0.00 in0.0 mm 0.00 in0.0 mm
11:30 PM 61.3°F16.3°C 51.8°F11.0°C 70% 2.2 mph S3.5 kmh S 4.0 mph6.4 kmh 29.77 in1008.1 mb 0.00 in0.0 mm 0.00 in0.0 mm 0.00 in0.0 mm
11:35 PM 61.5°F16.4°C 51.8°F11.0°C 70% 2.2 mph S3.5 kmh S 4.0 mph6.4 kmh 29.77 in1008.1 mb 0.00 in0.0 mm 0.00 in0.0 mm 0.00 in0.0 mm
11:40 PM 61.3°F16.3°C 51.8°F11.0°C 70% 1.3 mph SSW2.1 kmh SSW 6.0 mph9.7 kmh 29.77 in1008.1 mb 0.00 in0.0 mm 0.00 in0.0 mm 0.00 in0.0 mm
11:45 PM 61.3°F16.3°C 51.8°F11.0°C 70% 2.5 mph SSW4.0 kmh SSW 6.0 mph9.7 kmh 29.77 in1008.1 mb 0.00 in0.0 mm 0.00 in0.0 mm 0.00 in0.0 mm
11:50 PM 61.3°F16.3°C 51.8°F11.0°C 70% 2.5 mph SSW4.0 kmh SSW 4.3 mph6.9 kmh 29.77 in1008.1 mb 0.00 in0.0 mm 0.00 in0.0 mm 0.00 in0.0 mm
11:55 PM 61.3°F16.3°C 51.8°F11.0°C 70% 2.5 mph S4.0 kmh S 4.3 mph6.9 kmh 29.77 in1008.1 mb 0.00 in0.0 mm 0.00 in0.0 mm 0.00 in0.0 mm